Nexoe Maersk — OVYB2 — position and weather

sailwx.info

Track history (hours):
 
Tides and Currents Weather Stations Pressure Air Temp Water Temp Dewpoint Dewpoint Depression Visibility Wind Speed Wind Dir Waves Ship Positions

Nexoe Maersk

Last reported at 2018-Jan-21 21:35 UTC. Time now 2018-Jan-22 06:42 UTC.
Position N 36°35' W 001°57'.

Length 198 m; beam 30 m; draft 11 m.

Type: Cargo ship. MMSI: 219955000.

Date/timePositionNaut miles runAvg speedWind from/ knotsBaromVisibWave heightAir tempDewpointWater temp
2018-Jan-21 21:35N 36°35' W 001°57'311.4
2018-Jan-21 21:18N 36°38' W 001°55'511.5
2018-Jan-21 20:50N 36°41' W 001°49'411.6
2018-Jan-21 20:30N 36°44' W 001°46'611.7
2018-Jan-21 20:00N 36°48' W 001°41'611.3
2018-Jan-21 19:29N 36°52' W 001°35'511.1
2018-Jan-21 19:00N 36°55' W 001°30'811.4
2018-Jan-21 18:20N 37°00' W 001°23'611.4
2018-Jan-21 17:50N 37°04' W 001°17'411.2
2018-Jan-21 17:30N 37°06' W 001°14'611.1
2018-Jan-21 16:59N 37°10' W 001°09'511.0
2018-Jan-21 16:30N 37°14' W 001°04'611.2
2018-Jan-21 16:00N 37°17' W 000°58'510.8
2018-Jan-21 15:30N 37°21' W 000°53'510.8
2018-Jan-21 15:00N 37°24' W 000°48'510.8
2018-Jan-21 14:30N 37°28' W 000°43'510.6
2018-Jan-21 14:00N 37°31' W 000°38'510.8
2018-Jan-21 13:30N 37°35' W 000°33'611.1
2018-Jan-21 13:00N 37°40' W 000°29'611.3
2018-Jan-21 12:30N 37°44' W 000°25'611.2
2018-Jan-21 12:00N 37°49' W 000°21'611.1
2018-Jan-21 11:30N 37°54' W 000°17'510.7
2018-Jan-21 11:00N 37°58' W 000°14'510.5
2018-Jan-21 10:30N 38°03' W 000°10'80 9.5
2018-Jan-21 02:00N 39°23' W 000°14'5 9.3
2018-Jan-21 01:30N 39°26' W 000°18'1 2.5
2018-Jan-21 00:58N 39°27' W 000°19'0 0.0
2018-Jan-21 00:28N 39°27' W 000°19'0 0.0
2018-Jan-20 23:58N 39°27' W 000°19'0 0.0
2018-Jan-20 23:28N 39°27' W 000°19'0 0.0
2018-Jan-20 22:58N 39°27' W 000°19'0 0.0
2018-Jan-20 22:28N 39°27' W 000°19'0 0.0
2018-Jan-20 21:58N 39°27' W 000°19'0 0.0
2018-Jan-20 21:28N 39°27' W 000°19'0 0.0
2018-Jan-20 20:58N 39°27' W 000°19'0 0.0
2018-Jan-20 20:28N 39°27' W 000°19'0 0.0
2018-Jan-20 19:58N 39°27' W 000°19'0 0.0
2018-Jan-20 19:28N 39°27' W 000°19'0 0.0
2018-Jan-20 18:58N 39°27' W 000°19'0 0.0
2018-Jan-20 18:28N 39°27' W 000°19'0 0.0
2018-Jan-20 17:58N 39°27' W 000°19'0 0.0
2018-Jan-20 17:28N 39°27' W 000°19'0 0.0
2018-Jan-20 16:58N 39°27' W 000°19'0 0.0
2018-Jan-20 16:28N 39°27' W 000°19'0 0.0
2018-Jan-20 15:58N 39°27' W 000°19'0 0.0
2018-Jan-20 15:28N 39°27' W 000°19'1 2.4
2018-Jan-20 15:00N 39°26' W 000°19'4 7.9
2018-Jan-20 14:30N 39°25' W 000°14'4 7.2
2018-Jan-20 13:58N 39°25' W 000°09'3 6.9
2018-Jan-20 13:28N 39°26' W 000°05'117 9.6
2018-Jan-20 01:23N 40°48' E 001°45'511.7
2018-Jan-20 00:59N 40°51' E 001°48'611.7
2018-Jan-20 00:30N 40°56' E 001°53'611.5
2018-Jan-20 00:01N 41°01' E 001°57'611.5
2018-Jan-19 23:31N 41°06' E 002°01'611.8
2018-Jan-19 23:00N 41°11' E 002°05'611.6
2018-Jan-19 22:30N 41°15' E 002°10'4 8.0
2018-Jan-19 22:00N 41°19' E 002°10'1 2.0
2018-Jan-19 21:28N 41°18' E 002°09'0 0.0
2018-Jan-19 20:58N 41°18' E 002°09'0 0.0
2018-Jan-19 20:28N 41°18' E 002°09'0 0.0
2018-Jan-19 19:58N 41°18' E 002°09'0 0.0
2018-Jan-19 19:30N 41°18' E 002°09'0 0.0
2018-Jan-19 19:00N 41°18' E 002°09'0 0.0
2018-Jan-19 18:30N 41°18' E 002°09'0 0.0
2018-Jan-19 18:01N 41°18' E 002°09'0 0.0
2018-Jan-19 17:30N 41°18' E 002°09'0 0.0
2018-Jan-19 17:00N 41°18' E 002°09'0 0.0
2018-Jan-19 16:30N 41°18' E 002°09'0 0.0
2018-Jan-19 16:00N 41°18' E 002°09'0 0.0
2018-Jan-19 15:30N 41°18' E 002°09'0 0.0
2018-Jan-19 15:00N 41°18' E 002°09'0 0.0
2018-Jan-19 14:30N 41°18' E 002°09'0 0.0
2018-Jan-19 14:00N 41°18' E 002°09'0 0.0
2018-Jan-19 13:30N 41°18' E 002°09'0 0.0
2018-Jan-19 13:00N 41°18' E 002°09'1 2.5
2018-Jan-19 12:30N 41°19' E 002°10'2 4.3
2018-Jan-19 12:00N 41°17' E 002°12'1 1.5
2018-Jan-19 11:30N 41°17' E 002°13'714.8
2018-Jan-19 11:00N 41°19' E 002°22'815.7
2018-Jan-19 10:30N 41°22' E 002°32'815.7
2018-Jan-19 10:00N 41°26' E 002°40'13415.3
2018-Jan-19 01:13N 43°01' E 004°49'514.8
2018-Jan-19 00:55N 43°04' E 004°54'614.9
2018-Jan-19 00:30N 43°09' E 004°59'815.1
2018-Jan-19 00:00N 43°16' E 005°00'714.8
2018-Jan-18 23:30N 43°23' E 004°56'5 9.9
2018-Jan-18 23:00N 43°25' E 004°50'0 0.3
2018-Jan-18 22:30N 43°25' E 004°50'0 0.0
2018-Jan-18 22:00N 43°25' E 004°50'0 0.0
2018-Jan-18 21:30N 43°25' E 004°50'0 0.0
2018-Jan-18 21:00N 43°25' E 004°50'0 0.0
2018-Jan-18 20:30N 43°25' E 004°50'0 0.0
2018-Jan-18 20:00N 43°25' E 004°50'0 0.0
2018-Jan-18 19:30N 43°25' E 004°50'0 0.0
2018-Jan-18 19:00N 43°25' E 004°50'0 0.0
2018-Jan-18 18:30N 43°25' E 004°50'0 0.0
2018-Jan-18 18:00N 43°25' E 004°50'0 0.0
2018-Jan-18 17:30N 43°25' E 004°50'0 0.0
2018-Jan-18 17:00N 43°25' E 004°50'0 0.0
2018-Jan-18 16:30N 43°25' E 004°50'0 0.0
2018-Jan-18 16:00N 43°25' E 004°50'0 0.0
2018-Jan-18 15:30N 43°25' E 004°50'0 0.0
2018-Jan-18 15:00N 43°25' E 004°50'0 0.0
2018-Jan-18 14:30N 43°25' E 004°50'0 0.0
2018-Jan-18 14:00N 43°25' E 004°50'0 0.0
2018-Jan-18 13:29N 43°25' E 004°50'0 0.0
2018-Jan-18 13:00N 43°25' E 004°50'0 0.0
2018-Jan-18 12:30N 43°25' E 004°50'0 0.0
2018-Jan-18 12:00N 43°25' E 004°50'0 0.0
2018-Jan-18 11:30N 43°25' E 004°50'0 0.0
2018-Jan-18 11:00N 43°25' E 004°50'0 0.0
2018-Jan-18 10:30N 43°25' E 004°50'0 0.0
2018-Jan-18 10:00N 43°25' E 004°50'0 0.0
2018-Jan-18 09:30N 43°25' E 004°50'0 0.0
2018-Jan-18 09:00N 43°25' E 004°50'2 3.9
2018-Jan-18 08:30N 43°24' E 004°52'611.2
2018-Jan-18 08:00N 43°21' E 004°59'4 8.6
2018-Jan-18 07:30N 43°17' E 005°00'510.0
2018-Jan-18 07:00N 43°12' E 005°02'5 9.6
2018-Jan-18 06:30N 43°10' E 005°08'5 9.9
2018-Jan-18 06:00N 43°07' E 005°14'  
2018-Jan-12 15:01N 35°55' W 005°39'713.7
2018-Jan-12 14:30N 35°53' W 005°47'713.1
2018-Jan-12 14:00N 35°51' W 005°55'612.7
2018-Jan-12 13:30N 35°47' W 006°01'712.2
2018-Jan-12 12:57N 35°42' W 006°06'511.0
2018-Jan-12 12:29N 35°38' W 006°09'611.7
2018-Jan-12 12:00N 35°34' W 006°15'611.7
2018-Jan-12 11:29N 35°30' W 006°20'  
Track history (hours):
 
Tides and Currents Weather Stations Pressure Air Temp Water Temp Dewpoint Dewpoint Depression Visibility Wind Speed Wind Dir Waves Ship Positions

Nexoe Maersk

Last reported at 2018-Jan-21 21:35 UTC. Time now 2018-Jan-22 06:42 UTC.
Position N 36°35' W 001°57'.

Length 198 m; beam 30 m; draft 11 m.

Type: Cargo ship. MMSI: 219955000.

Date/timePositionNaut miles runAvg speedWind from/ knotsBaromVisibWave heightAir tempDewpointWater temp
2018-Jan-21 21:35N 36°35' W 001°57'311.4
2018-Jan-21 21:18N 36°38' W 001°55'511.5
2018-Jan-21 20:50N 36°41' W 001°49'411.6
2018-Jan-21 20:30N 36°44' W 001°46'611.7
2018-Jan-21 20:00N 36°48' W 001°41'611.3
2018-Jan-21 19:29N 36°52' W 001°35'511.1
2018-Jan-21 19:00N 36°55' W 001°30'811.4
2018-Jan-21 18:20N 37°00' W 001°23'611.4
2018-Jan-21 17:50N 37°04' W 001°17'411.2
2018-Jan-21 17:30N 37°06' W 001°14'611.1
2018-Jan-21 16:59N 37°10' W 001°09'511.0
2018-Jan-21 16:30N 37°14' W 001°04'611.2
2018-Jan-21 16:00N 37°17' W 000°58'510.8
2018-Jan-21 15:30N 37°21' W 000°53'510.8
2018-Jan-21 15:00N 37°24' W 000°48'510.8
2018-Jan-21 14:30N 37°28' W 000°43'510.6
2018-Jan-21 14:00N 37°31' W 000°38'510.8
2018-Jan-21 13:30N 37°35' W 000°33'611.1
2018-Jan-21 13:00N 37°40' W 000°29'611.3
2018-Jan-21 12:30N 37°44' W 000°25'611.2
2018-Jan-21 12:00N 37°49' W 000°21'611.1
2018-Jan-21 11:30N 37°54' W 000°17'510.7
2018-Jan-21 11:00N 37°58' W 000°14'510.5
2018-Jan-21 10:30N 38°03' W 000°10'80 9.5
2018-Jan-21 02:00N 39°23' W 000°14'5 9.3
2018-Jan-21 01:30N 39°26' W 000°18'1 2.5
2018-Jan-21 00:58N 39°27' W 000°19'0 0.0
2018-Jan-21 00:28N 39°27' W 000°19'0 0.0
2018-Jan-20 23:58N 39°27' W 000°19'0 0.0
2018-Jan-20 23:28N 39°27' W 000°19'0 0.0
2018-Jan-20 22:58N 39°27' W 000°19'0 0.0
2018-Jan-20 22:28N 39°27' W 000°19'0 0.0
2018-Jan-20 21:58N 39°27' W 000°19'0 0.0
2018-Jan-20 21:28N 39°27' W 000°19'0 0.0
2018-Jan-20 20:58N 39°27' W 000°19'0 0.0
2018-Jan-20 20:28N 39°27' W 000°19'0 0.0
2018-Jan-20 19:58N 39°27' W 000°19'0 0.0
2018-Jan-20 19:28N 39°27' W 000°19'0 0.0
2018-Jan-20 18:58N 39°27' W 000°19'0 0.0
2018-Jan-20 18:28N 39°27' W 000°19'0 0.0
2018-Jan-20 17:58N 39°27' W 000°19'0 0.0
2018-Jan-20 17:28N 39°27' W 000°19'0 0.0
2018-Jan-20 16:58N 39°27' W 000°19'0 0.0
2018-Jan-20 16:28N 39°27' W 000°19'0 0.0
2018-Jan-20 15:58N 39°27' W 000°19'0 0.0
2018-Jan-20 15:28N 39°27' W 000°19'1 2.4
2018-Jan-20 15:00N 39°26' W 000°19'4 7.9
2018-Jan-20 14:30N 39°25' W 000°14'4 7.2
2018-Jan-20 13:58N 39°25' W 000°09'3 6.9
2018-Jan-20 13:28N 39°26' W 000°05'117 9.6
2018-Jan-20 01:23N 40°48' E 001°45'511.7
2018-Jan-20 00:59N 40°51' E 001°48'611.7
2018-Jan-20 00:30N 40°56' E 001°53'611.5
2018-Jan-20 00:01N 41°01' E 001°57'611.5
2018-Jan-19 23:31N 41°06' E 002°01'611.8
2018-Jan-19 23:00N 41°11' E 002°05'611.6
2018-Jan-19 22:30N 41°15' E 002°10'4 8.0
2018-Jan-19 22:00N 41°19' E 002°10'1 2.0
2018-Jan-19 21:28N 41°18' E 002°09'0 0.0
2018-Jan-19 20:58N 41°18' E 002°09'0 0.0
2018-Jan-19 20:28N 41°18' E 002°09'0 0.0
2018-Jan-19 19:58N 41°18' E 002°09'0 0.0
2018-Jan-19 19:30N 41°18' E 002°09'0 0.0
2018-Jan-19 19:00N 41°18' E 002°09'0 0.0
2018-Jan-19 18:30N 41°18' E 002°09'0 0.0
2018-Jan-19 18:01N 41°18' E 002°09'0 0.0
2018-Jan-19 17:30N 41°18' E 002°09'0 0.0
2018-Jan-19 17:00N 41°18' E 002°09'0 0.0
2018-Jan-19 16:30N 41°18' E 002°09'0 0.0
2018-Jan-19 16:00N 41°18' E 002°09'0 0.0
2018-Jan-19 15:30N 41°18' E 002°09'0 0.0
2018-Jan-19 15:00N 41°18' E 002°09'0 0.0
2018-Jan-19 14:30N 41°18' E 002°09'0 0.0
2018-Jan-19 14:00N 41°18' E 002°09'0 0.0
2018-Jan-19 13:30N 41°18' E 002°09'0 0.0
2018-Jan-19 13:00N 41°18' E 002°09'1 2.5
2018-Jan-19 12:30N 41°19' E 002°10'2 4.3
2018-Jan-19 12:00N 41°17' E 002°12'1 1.5
2018-Jan-19 11:30N 41°17' E 002°13'714.8
2018-Jan-19 11:00N 41°19' E 002°22'815.7
2018-Jan-19 10:30N 41°22' E 002°32'815.7
2018-Jan-19 10:00N 41°26' E 002°40'13415.3
2018-Jan-19 01:13N 43°01' E 004°49'514.8
2018-Jan-19 00:55N 43°04' E 004°54'614.9
2018-Jan-19 00:30N 43°09' E 004°59'815.1
2018-Jan-19 00:00N 43°16' E 005°00'714.8
2018-Jan-18 23:30N 43°23' E 004°56'5 9.9
2018-Jan-18 23:00N 43°25' E 004°50'0 0.3
2018-Jan-18 22:30N 43°25' E 004°50'0 0.0
2018-Jan-18 22:00N 43°25' E 004°50'0 0.0
2018-Jan-18 21:30N 43°25' E 004°50'0 0.0
2018-Jan-18 21:00N 43°25' E 004°50'0 0.0
2018-Jan-18 20:30N 43°25' E 004°50'0 0.0
2018-Jan-18 20:00N 43°25' E 004°50'0 0.0
2018-Jan-18 19:30N 43°25' E 004°50'0 0.0
2018-Jan-18 19:00N 43°25' E 004°50'0 0.0
2018-Jan-18 18:30N 43°25' E 004°50'0 0.0
2018-Jan-18 18:00N 43°25' E 004°50'0 0.0
2018-Jan-18 17:30N 43°25' E 004°50'0 0.0
2018-Jan-18 17:00N 43°25' E 004°50'0 0.0
2018-Jan-18 16:30N 43°25' E 004°50'0 0.0
2018-Jan-18 16:00N 43°25' E 004°50'0 0.0
2018-Jan-18 15:30N 43°25' E 004°50'0 0.0
2018-Jan-18 15:00N 43°25' E 004°50'0 0.0
2018-Jan-18 14:30N 43°25' E 004°50'0 0.0
2018-Jan-18 14:00N 43°25' E 004°50'0 0.0
2018-Jan-18 13:29N 43°25' E 004°50'0 0.0
2018-Jan-18 13:00N 43°25' E 004°50'0 0.0
2018-Jan-18 12:30N 43°25' E 004°50'0 0.0
2018-Jan-18 12:00N 43°25' E 004°50'0 0.0
2018-Jan-18 11:30N 43°25' E 004°50'0 0.0
2018-Jan-18 11:00N 43°25' E 004°50'0 0.0
2018-Jan-18 10:30N 43°25' E 004°50'0 0.0
2018-Jan-18 10:00N 43°25' E 004°50'0 0.0
2018-Jan-18 09:30N 43°25' E 004°50'0 0.0
2018-Jan-18 09:00N 43°25' E 004°50'2 3.9
2018-Jan-18 08:30N 43°24' E 004°52'611.2
2018-Jan-18 08:00N 43°21' E 004°59'4 8.6
2018-Jan-18 07:30N 43°17' E 005°00'510.0
2018-Jan-18 07:00N 43°12' E 005°02'5 9.6
2018-Jan-18 06:30N 43°10' E 005°08'5 9.9
2018-Jan-18 06:00N 43°07' E 005°14'  
2018-Jan-12 15:01N 35°55' W 005°39'713.7
2018-Jan-12 14:30N 35°53' W 005°47'713.1
2018-Jan-12 14:00N 35°51' W 005°55'612.7
2018-Jan-12 13:30N 35°47' W 006°01'712.2
2018-Jan-12 12:57N 35°42' W 006°06'511.0
2018-Jan-12 12:29N 35°38' W 006°09'611.7
2018-Jan-12 12:00N 35°34' W 006°15'611.7
2018-Jan-12 11:29N 35°30' W 006°20'  

Dump ship's entire track history